createdAt,value
2024-03-09T00:01:45.034Z,45.96
2024-03-09T00:04:46.868Z,47.02
2024-03-09T00:07:49.677Z,47.88
2024-03-09T00:10:51.902Z,47.84
2024-03-09T00:13:53.695Z,48.51
2024-03-09T00:16:55.484Z,48.24
2024-03-09T00:20:00.502Z,47.21
2024-03-09T00:23:07.394Z,47.92
2024-03-09T00:26:11.406Z,47.51
2024-03-09T00:29:13.477Z,46.96
2024-03-09T00:32:15.397Z,48.68
2024-03-09T00:35:17.476Z,48.07
2024-03-09T00:38:20.437Z,47.81
2024-03-09T00:41:22.258Z,46.55
2024-03-09T00:44:24.089Z,47.39
2024-03-09T00:47:25.807Z,47.62
2024-03-09T00:50:28.515Z,46.26
2024-03-09T00:53:31.859Z,47.14
2024-03-09T00:56:34.395Z,46.25
2024-03-09T00:59:36.175Z,46.07
2024-03-09T01:02:42.542Z,46.10
2024-03-09T01:05:45.710Z,44.87
2024-03-09T01:08:50.362Z,46.04
2024-03-09T01:11:53.682Z,44.79
2024-03-09T01:14:56.470Z,43.65
2024-03-09T01:17:58.628Z,41.42
2024-03-09T01:21:00.448Z,43.75
2024-03-09T01:24:02.829Z,41.80
2024-03-09T01:27:05.930Z,41.40
2024-03-09T01:30:08.586Z,41.80
2024-03-09T01:33:10.596Z,42.09
2024-03-09T01:36:12.409Z,41.36
2024-03-09T01:39:17.156Z,40.33
2024-03-09T01:42:22.997Z,40.56
2024-03-09T01:45:28.012Z,39.95
2024-03-09T01:48:30.994Z,41.72
2024-03-09T01:51:35.846Z,40.98
2024-03-09T01:54:43.039Z,41.25
2024-03-09T01:57:45.038Z,41.72
2024-03-09T02:00:56.315Z,40.53
2024-03-09T02:03:58.166Z,41.22
2024-03-09T02:07:00.077Z,40.91
2024-03-09T02:10:02.161Z,40.59
2024-03-09T02:13:04.486Z,41.11
2024-03-09T02:16:06.410Z,40.71
2024-03-09T02:19:10.166Z,40.71
2024-03-09T02:22:18.449Z,42.55
2024-03-09T02:25:22.785Z,40.76
2024-03-09T02:28:24.635Z,42.31
2024-03-09T02:31:29.508Z,42.63
2024-03-09T02:34:31.466Z,43.73
2024-03-09T02:37:35.068Z,41.59
2024-03-09T02:40:36.843Z,45.35
2024-03-09T02:43:38.820Z,44.85
2024-03-09T02:46:41.050Z,43.39
2024-03-09T02:49:42.964Z,44.42
2024-03-09T02:52:44.717Z,45.24
2024-03-09T02:55:47.033Z,45.49
2024-03-09T02:58:50.078Z,44.66
2024-03-09T03:01:53.317Z,44.47
2024-03-09T03:04:55.142Z,44.85
2024-03-09T03:07:56.968Z,44.13
2024-03-09T03:10:58.824Z,44.00
2024-03-09T03:14:02.704Z,44.57
2024-03-09T03:17:08.560Z,44.45
2024-03-09T03:20:11.400Z,44.40
2024-03-09T03:23:14.019Z,43.11
2024-03-09T03:26:17.059Z,42.77
2024-03-09T03:29:18.914Z,42.75
2024-03-09T03:32:20.783Z,41.92
2024-03-09T03:35:25.967Z,41.56
2024-03-09T03:38:27.718Z,41.08
2024-03-09T03:41:29.442Z,42.02
2024-03-09T03:44:35.727Z,41.00
2024-03-09T03:47:37.464Z,41.11
2024-03-09T03:50:39.348Z,40.60
2024-03-09T03:53:42.849Z,40.14
2024-03-09T03:56:44.594Z,40.80
2024-03-09T03:59:46.360Z,40.99
2024-03-09T04:02:48.211Z,40.14
2024-03-09T04:05:50.314Z,39.98
2024-03-09T04:08:52.143Z,40.06
2024-03-09T04:11:54.586Z,40.72
2024-03-09T04:14:58.314Z,40.23
2024-03-09T04:18:04.168Z,39.80
2024-03-09T04:21:06.185Z,40.43
2024-03-09T04:24:10.578Z,39.95
2024-03-09T04:27:12.413Z,39.73
2024-03-09T04:30:17.182Z,40.31
2024-03-09T04:33:20.741Z,41.27
2024-03-09T04:36:27.393Z,41.74
2024-03-09T04:39:30.883Z,40.00
2024-03-09T04:42:32.673Z,41.46
2024-03-09T04:45:34.705Z,41.49
2024-03-09T04:48:36.449Z,42.99
2024-03-09T04:51:38.179Z,45.07
2024-03-09T04:54:44.997Z,46.64
2024-03-09T04:57:47.097Z,47.28
2024-03-09T05:00:48.927Z,48.11
2024-03-09T05:03:50.708Z,48.93
2024-03-09T05:06:52.571Z,49.02
2024-03-09T05:09:54.361Z,48.27
2024-03-09T05:12:56.672Z,49.17
2024-03-09T05:15:58.456Z,50.07
2024-03-09T05:19:00.963Z,49.73
2024-03-09T05:22:02.781Z,48.59
2024-03-09T05:25:05.822Z,48.45
2024-03-09T05:28:07.712Z,48.25
2024-03-09T05:31:26.546Z,48.10
2024-03-09T05:34:28.368Z,48.68
2024-03-09T05:37:30.093Z,47.52
2024-03-09T05:40:32.445Z,48.01
2024-03-09T05:43:34.450Z,48.09
2024-03-09T05:46:36.253Z,47.82
2024-03-09T05:49:38.390Z,48.08
2024-03-09T05:52:42.035Z,47.43
2024-03-09T05:55:45.200Z,47.18
2024-03-09T05:58:47.372Z,45.89
2024-03-09T06:01:49.167Z,45.38
2024-03-09T06:04:50.997Z,44.47
2024-03-09T06:07:52.748Z,43.03
2024-03-09T06:11:01.264Z,43.35
2024-03-09T06:14:05.468Z,42.24
2024-03-09T06:17:08.200Z,40.85
2024-03-09T06:20:11.088Z,40.94
2024-03-09T06:23:13.747Z,40.93
2024-03-09T06:26:15.550Z,41.21
2024-03-09T06:29:17.932Z,39.65
2024-03-09T06:32:19.661Z,39.68
2024-03-09T06:35:23.177Z,38.74
2024-03-09T06:38:25.162Z,37.84
2024-03-09T06:41:27.567Z,38.14
2024-03-09T06:44:29.479Z,38.21
2024-03-09T06:47:32.259Z,39.10
2024-03-09T06:50:36.438Z,39.32
2024-03-09T06:53:38.306Z,39.65
2024-03-09T06:56:40.595Z,39.05
2024-03-09T06:59:42.336Z,39.44
2024-03-09T07:02:44.699Z,39.99
2024-03-09T07:05:47.414Z,37.71
2024-03-09T07:08:49.147Z,37.65
2024-03-09T07:11:53.847Z,37.69
2024-03-09T07:14:55.912Z,36.54
2024-03-09T07:17:58.197Z,36.38
2024-03-09T07:21:00.066Z,35.17
2024-03-09T07:24:01.895Z,34.02
2024-03-09T07:27:03.709Z,35.51
2024-03-09T07:30:09.566Z,33.21
2024-03-09T07:33:11.949Z,33.81
2024-03-09T07:36:14.697Z,33.54
2024-03-09T07:39:17.426Z,32.25
2024-03-09T07:42:19.244Z,32.00
2024-03-09T07:45:24.289Z,31.99
2024-03-09T07:48:26.303Z,32.39
2024-03-09T07:51:30.323Z,30.70
2024-03-09T07:54:33.228Z,30.58
2024-03-09T07:57:35.096Z,31.24
2024-03-09T08:00:36.899Z,30.70
2024-03-09T08:03:38.734Z,29.44
2024-03-09T08:06:41.496Z,29.31
2024-03-09T08:09:43.215Z,29.22
2024-03-09T08:12:46.005Z,28.12
2024-03-09T08:15:47.824Z,28.00
2024-03-09T08:18:49.541Z,26.77
2024-03-09T08:21:52.571Z,26.42
2024-03-09T08:24:56.960Z,26.88
2024-03-09T08:28:02.124Z,26.68
2024-03-09T08:31:09.435Z,26.88
2024-03-09T08:34:11.132Z,26.69
2024-03-09T08:37:14.188Z,26.31
2024-03-09T08:40:20.835Z,26.28
2024-03-09T08:43:22.657Z,26.75
2024-03-09T08:46:24.426Z,25.98
2024-03-09T08:49:26.181Z,25.85
2024-03-09T08:52:28.092Z,25.90
2024-03-09T08:55:30.040Z,25.51
2024-03-09T08:58:32.572Z,25.97
2024-03-09T09:01:34.353Z,26.67
2024-03-09T09:04:36.219Z,26.13
2024-03-09T09:07:42.794Z,25.55
2024-03-09T09:10:44.794Z,25.17
2024-03-09T09:13:47.110Z,24.80
2024-03-09T09:16:49.006Z,24.40
2024-03-09T09:19:50.771Z,24.44
2024-03-09T09:22:55.147Z,24.59
2024-03-09T09:25:59.004Z,24.53
2024-03-09T09:29:01.820Z,24.13
2024-03-09T09:32:05.292Z,24.75
2024-03-09T09:35:07.519Z,24.68
2024-03-09T09:38:09.449Z,25.32
2024-03-09T09:41:13.594Z,24.53
2024-03-09T09:44:17.148Z,23.44
2024-03-09T09:47:19.355Z,22.60
2024-03-09T09:50:23.886Z,21.29
2024-03-09T09:53:25.977Z,22.38
2024-03-09T09:56:27.781Z,21.90
2024-03-09T09:59:31.343Z,21.69
2024-03-09T10:02:33.992Z,22.61
2024-03-09T10:05:35.763Z,21.15
2024-03-09T10:08:54.406Z,21.63
2024-03-09T10:11:57.529Z,21.17
2024-03-09T10:15:12.491Z,21.68
2024-03-09T10:18:14.711Z,21.11
2024-03-09T10:21:38.786Z,21.29
2024-03-09T10:24:58.969Z,20.88
2024-03-09T10:28:00.853Z,20.89
2024-03-09T10:31:09.005Z,20.82
2024-03-09T10:34:13.594Z,20.75
2024-03-09T10:37:19.483Z,18.92
2024-03-09T10:40:21.885Z,19.13
2024-03-09T10:43:24.294Z,18.54
2024-03-09T10:46:29.824Z,18.32
2024-03-09T10:49:35.126Z,18.30
2024-03-09T10:52:46.834Z,18.86
2024-03-09T10:56:01.004Z,18.65
2024-03-09T10:59:04.462Z,18.75
2024-03-09T11:02:09.086Z,18.09
2024-03-09T11:05:12.383Z,17.96
2024-03-09T11:08:15.151Z,17.79
2024-03-09T11:11:23.574Z,17.64
2024-03-09T11:14:26.327Z,17.59
2024-03-09T11:17:36.162Z,17.17
2024-03-09T11:20:55.634Z,16.66
2024-03-09T11:24:01.234Z,17.25
2024-03-09T11:27:03.573Z,16.26
2024-03-09T11:30:07.598Z,16.87
2024-03-09T11:33:12.221Z,15.47
2024-03-09T11:36:53.911Z,15.24
2024-03-09T11:39:56.068Z,15.91
2024-03-09T11:43:05.820Z,15.86
2024-03-09T11:46:10.782Z,15.57
2024-03-09T11:49:12.548Z,14.69
2024-03-09T11:52:16.132Z,15.08
2024-03-09T11:55:21.925Z,15.26
2024-03-09T11:58:23.978Z,15.42
2024-03-09T12:01:25.981Z,15.25
2024-03-09T12:04:28.139Z,14.80
2024-03-09T12:07:29.939Z,15.27
2024-03-09T12:10:33.123Z,14.96
2024-03-09T12:13:35.046Z,14.60
2024-03-09T12:16:38.590Z,14.15
2024-03-09T12:19:45.446Z,13.55
2024-03-09T12:22:47.620Z,13.45
2024-03-09T12:25:49.395Z,13.74
2024-03-09T12:28:51.543Z,13.96
2024-03-09T12:31:53.368Z,13.55
2024-03-09T12:34:55.861Z,13.78
2024-03-09T12:37:57.826Z,14.16
2024-03-09T12:40:59.817Z,14.21
2024-03-09T12:44:07.424Z,14.99
2024-03-09T12:47:15.774Z,14.75
2024-03-09T12:50:20.524Z,14.47
2024-03-09T12:53:24.293Z,14.24
2024-03-09T12:56:33.918Z,15.84
2024-03-09T12:59:37.826Z,16.74
2024-03-09T13:02:39.617Z,15.55
2024-03-09T13:05:41.339Z,15.53
2024-03-09T13:08:44.464Z,15.68
2024-03-09T13:11:48.321Z,15.42
2024-03-09T13:14:52.902Z,15.65
2024-03-09T13:17:58.870Z,16.77
2024-03-09T13:21:03.062Z,15.84
2024-03-09T13:24:10.065Z,15.90
2024-03-09T13:27:13.886Z,16.28
2024-03-09T13:30:18.694Z,16.46
2024-03-09T13:33:20.456Z,16.66
2024-03-09T13:36:26.104Z,16.77
2024-03-09T13:39:36.593Z,16.68
2024-03-09T13:42:39.671Z,16.87
2024-03-09T13:45:41.928Z,16.73
2024-03-09T13:48:44.506Z,17.20
2024-03-09T13:51:46.432Z,17.62
2024-03-09T13:54:48.219Z,17.64
2024-03-09T13:57:50.002Z,17.02
2024-03-09T14:00:51.819Z,17.09
2024-03-09T14:03:56.600Z,16.75
2024-03-09T14:07:07.584Z,16.23
2024-03-09T14:10:16.738Z,16.65
2024-03-09T14:13:21.371Z,16.34
2024-03-09T14:16:25.562Z,16.45
2024-03-09T14:19:29.486Z,16.43
2024-03-09T14:22:34.174Z,16.34
2024-03-09T14:25:37.077Z,16.41
2024-03-09T14:28:39.722Z,16.60
2024-03-09T14:31:41.808Z,16.56
2024-03-09T14:34:43.616Z,16.79
2024-03-09T14:37:45.526Z,17.00
2024-03-09T14:40:53.123Z,16.88
2024-03-09T14:43:55.254Z,17.11
2024-03-09T14:46:58.256Z,16.82
2024-03-09T14:50:00.074Z,16.60
2024-03-09T14:53:09.896Z,16.64
2024-03-09T14:56:11.730Z,16.94
2024-03-09T14:59:14.296Z,16.51
2024-03-09T15:02:16.124Z,17.10
2024-03-09T15:05:18.698Z,17.55
2024-03-09T15:08:22.815Z,18.05
2024-03-09T15:11:24.875Z,18.13
2024-03-09T15:14:27.212Z,17.59
2024-03-09T15:17:29.411Z,17.60
2024-03-09T15:20:31.263Z,17.53
2024-03-09T15:23:33.268Z,17.72
2024-03-09T15:26:38.605Z,17.30
2024-03-09T15:29:40.631Z,17.86
2024-03-09T15:32:42.491Z,17.94
2024-03-09T15:35:44.248Z,18.09
2024-03-09T15:38:46.161Z,18.26
2024-03-09T15:41:47.900Z,19.25
2024-03-09T15:44:49.818Z,19.47
2024-03-09T15:47:51.872Z,19.08
2024-03-09T15:50:54.232Z,19.88
2024-03-09T15:53:56.052Z,19.20
2024-03-09T15:56:57.837Z,19.40
2024-03-09T15:59:59.664Z,19.64
2024-03-09T16:03:04.639Z,19.56
2024-03-09T16:06:06.538Z,19.42
2024-03-09T16:09:13.346Z,19.54
2024-03-09T16:12:18.194Z,19.91
2024-03-09T16:15:25.693Z,20.49
2024-03-09T16:18:27.537Z,19.86
2024-03-09T16:21:29.322Z,20.54
2024-03-09T16:24:31.104Z,20.96
2024-03-09T16:27:32.811Z,20.49
2024-03-09T16:30:34.604Z,21.06
2024-03-09T16:33:37.963Z,21.08
2024-03-09T16:36:39.771Z,21.13
2024-03-09T16:39:41.683Z,20.74
2024-03-09T16:42:46.651Z,21.40
2024-03-09T16:45:48.385Z,20.95
2024-03-09T16:48:52.291Z,21.75
2024-03-09T16:51:54.147Z,21.23
2024-03-09T16:54:55.904Z,21.17
2024-03-09T16:58:02.083Z,22.00
2024-03-09T17:01:06.154Z,24.75
2024-03-09T17:04:13.067Z,27.35
2024-03-09T17:07:14.916Z,25.34
2024-03-09T17:10:19.372Z,23.44
2024-03-09T17:13:24.902Z,21.41
2024-03-09T17:16:26.629Z,21.87
2024-03-09T17:19:28.425Z,21.69
2024-03-09T17:22:31.840Z,21.10
2024-03-09T17:25:36.399Z,21.28
2024-03-09T17:28:38.906Z,20.65
2024-03-09T17:31:40.727Z,22.23
2024-03-09T17:34:43.344Z,23.55
2024-03-09T17:37:47.552Z,23.48
2024-03-09T17:40:49.512Z,22.14
2024-03-09T17:43:51.436Z,22.38
2024-03-09T17:46:57.277Z,21.21
2024-03-09T17:49:59.101Z,21.90
2024-03-09T17:53:01.437Z,21.98
2024-03-09T17:56:03.365Z,21.40
2024-03-09T17:59:07.151Z,21.63
2024-03-09T18:02:10.029Z,21.82
2024-03-09T18:05:12.636Z,21.81
2024-03-09T18:08:15.865Z,21.30
2024-03-09T18:11:17.857Z,22.02
2024-03-09T18:14:21.650Z,22.60
2024-03-09T18:17:24.737Z,22.58
2024-03-09T18:20:28.745Z,22.82
2024-03-09T18:23:30.592Z,22.49
2024-03-09T18:26:34.250Z,22.63
2024-03-09T18:29:36.032Z,22.36
2024-03-09T18:32:44.156Z,23.22
2024-03-09T18:35:47.680Z,22.66
2024-03-09T18:38:50.330Z,22.83
2024-03-09T18:41:53.861Z,23.46
2024-03-09T18:44:55.823Z,23.41
2024-03-09T18:47:58.887Z,23.61
2024-03-09T18:51:01.533Z,23.48
2024-03-09T18:54:03.363Z,23.31
2024-03-09T18:57:05.364Z,23.46
2024-03-09T19:00:19.161Z,23.60
2024-03-09T19:03:22.445Z,24.20
2024-03-09T19:06:24.291Z,23.42
2024-03-09T19:09:25.998Z,23.89
2024-03-09T19:12:27.791Z,23.38
2024-03-09T19:15:29.579Z,23.87
2024-03-09T19:18:31.626Z,23.61
2024-03-09T19:21:33.723Z,23.45
2024-03-09T19:24:35.474Z,23.65
2024-03-09T19:27:47.243Z,23.98
2024-03-09T19:30:49.466Z,23.61
2024-03-09T19:33:51.202Z,23.41
2024-03-09T19:36:53.660Z,23.49
2024-03-09T19:39:56.160Z,24.27
2024-03-09T19:43:01.627Z,24.33
2024-03-09T19:46:03.709Z,24.29
2024-03-09T19:49:05.453Z,24.24
2024-03-09T19:52:07.232Z,24.44
2024-03-09T19:55:13.362Z,24.08
2024-03-09T19:58:16.590Z,23.92
2024-03-09T20:01:20.891Z,24.21
2024-03-09T20:04:22.711Z,23.82
2024-03-09T20:07:25.986Z,23.70
2024-03-09T20:10:30.830Z,23.31
2024-03-09T20:13:35.841Z,23.87
2024-03-09T20:16:37.584Z,23.21
2024-03-09T20:19:40.162Z,22.82
2024-03-09T20:22:42.739Z,23.49
2024-03-09T20:25:44.576Z,23.87
2024-03-09T20:28:47.838Z,23.33
2024-03-09T20:31:49.795Z,22.24
2024-03-09T20:34:52.945Z,22.95
2024-03-09T20:37:56.742Z,23.02
2024-03-09T20:40:58.589Z,22.22
2024-03-09T20:44:00.716Z,22.55
2024-03-09T20:47:02.737Z,22.56
2024-03-09T20:50:12.344Z,22.40
2024-03-09T20:53:23.801Z,22.60
2024-03-09T20:56:25.680Z,22.75
2024-03-09T20:59:28.695Z,22.36
2024-03-09T21:02:32.850Z,22.26
2024-03-09T21:05:35.400Z,22.43
2024-03-09T21:08:38.620Z,21.95
2024-03-09T21:11:40.916Z,21.91
2024-03-09T21:14:42.675Z,22.63
2024-03-09T21:17:44.780Z,22.32
2024-03-09T21:20:46.610Z,21.88
2024-03-09T21:23:48.391Z,21.71
2024-03-09T21:26:50.132Z,21.38
2024-03-09T21:29:51.914Z,21.40
2024-03-09T21:32:53.790Z,21.39
2024-03-09T21:35:55.598Z,21.71
2024-03-09T21:38:57.534Z,21.52
2024-03-09T21:42:00.107Z,21.03
2024-03-09T21:45:01.921Z,21.19
2024-03-09T21:48:06.503Z,21.01
2024-03-09T21:51:09.489Z,20.61
2024-03-09T21:54:14.322Z,20.62
2024-03-09T21:57:16.112Z,20.29
2024-03-09T22:00:25.239Z,20.77
2024-03-09T22:03:30.034Z,20.80
2024-03-09T22:06:31.858Z,19.85
2024-03-09T22:09:33.970Z,20.60
2024-03-09T22:12:36.420Z,19.83
2024-03-09T22:15:38.694Z,19.92
2024-03-09T22:18:40.425Z,19.55
2024-03-09T22:21:42.246Z,19.78
2024-03-09T22:24:44.023Z,19.27
2024-03-09T22:27:46.134Z,19.87
2024-03-09T22:30:47.855Z,19.80
2024-03-09T22:33:49.580Z,19.56
2024-03-09T22:36:51.351Z,19.79
2024-03-09T22:39:53.053Z,19.88
2024-03-09T22:42:55.184Z,19.86
2024-03-09T22:45:58.589Z,19.01
2024-03-09T22:49:00.950Z,19.44
2024-03-09T22:52:02.823Z,18.92
2024-03-09T22:55:05.402Z,19.70
2024-03-09T22:58:07.190Z,19.66
2024-03-09T23:01:25.691Z,18.90
2024-03-09T23:04:29.062Z,18.98
2024-03-09T23:07:30.824Z,18.59
2024-03-09T23:10:34.144Z,18.69
2024-03-09T23:13:37.200Z,18.87
2024-03-09T23:16:39.000Z,18.95
2024-03-09T23:19:41.294Z,18.11
2024-03-09T23:22:53.139Z,17.95
2024-03-09T23:25:55.095Z,18.24
2024-03-09T23:28:56.918Z,17.98
2024-03-09T23:31:59.190Z,17.62
2024-03-09T23:35:02.905Z,17.74
2024-03-09T23:38:06.649Z,17.28
2024-03-09T23:41:09.044Z,17.37
2024-03-09T23:44:14.064Z,17.55
2024-03-09T23:47:15.941Z,16.62
2024-03-09T23:50:19.069Z,15.98
2024-03-09T23:53:21.789Z,15.99
2024-03-09T23:56:23.727Z,15.37
2024-03-09T23:59:25.721Z,16.12
